Time;durP1;ratioP1;P1;durP2;ratioP2;P2;SDS_P1;SDS_P2;PMS_P1;PMS_P2;Temp;Humidity;BMP_temperature;BMP_pressure;BME280_temperature;BME280_humidity;BME280_pressure;Samples;Min_cycle;Max_cycle;Signal;HPM_P1;HPM_P2
2022/07/21 00:00:26;;;;;;;12.43;8.18;;;;;;;19.04;88.02;99588.22;5122225;27;20020;-55
2022/07/21 00:02:52;;;;;;;14.23;8.52;;;;;;;19.01;88.08;99579.84;5120893;27;20482;-55
2022/07/21 00:05:17;;;;;;;16.30;8.63;;;;;;;19.04;89.37;99574.63;5120690;27;20044;-54
2022/07/21 00:07:43;;;;;;;17.80;9.48;;;;;;;19.04;92.54;99584.69;5098449;28;20027;-55
2022/07/21 00:10:08;;;;;;;16.52;8.82;;;;;;;18.92;90.73;99601.41;5122380;27;20063;-54
2022/07/21 00:12:34;;;;;;;18.60;9.50;;;;;;;18.79;93.60;99602.09;5117457;27;20045;-54
2022/07/21 00:14:59;;;;;;;15.82;9.13;;;;;;;18.78;94.71;99624.91;5103167;27;20492;-54
2022/07/21 00:17:25;;;;;;;16.17;8.98;;;;;;;18.49;96.63;99639.25;5117527;27;20024;-55
2022/07/21 00:19:50;;;;;;;15.30;8.82;;;;;;;18.19;97.93;99654.69;5127444;27;20473;-53
2022/07/21 00:22:15;;;;;;;20.48;9.55;;;;;;;17.76;100.00;99656.28;5119040;27;20059;-53
2022/07/21 00:24:41;;;;;;;18.65;8.75;;;;;;;17.39;100.00;99666.47;5124243;27;20019;-55
2022/07/21 00:27:06;;;;;;;21.17;9.88;;;;;;;17.39;100.00;99663.75;5128154;27;20396;-56
2022/07/21 00:29:32;;;;;;;17.17;10.55;;;;;;;17.31;100.00;99637.25;5119974;27;20110;-57
2022/07/21 00:31:59;;;;;;;21.55;9.98;;;;;;;17.19;100.00;99632.13;5116489;27;20043;-55
2022/07/21 00:34:25;;;;;;;22.30;9.98;;;;;;;17.39;100.00;99628.53;5095178;27;20114;-53
2022/07/21 00:36:50;;;;;;;16.92;9.18;;;;;;;17.33;100.00;99624.25;5115503;27;20362;-54
2022/07/21 00:39:16;;;;;;;14.70;8.55;;;;;;;17.06;100.00;99615.69;5104249;27;20031;-54
2022/07/21 00:41:41;;;;;;;13.45;8.10;;;;;;;17.16;100.00;99618.34;5120533;27;20035;-56
2022/07/21 00:44:18;;;;;;;11.73;7.07;;;;;;;17.19;100.00;99617.78;5114975;27;20027;-54
2022/07/21 00:46:44;;;;;;;14.43;8.07;;;;;;;17.23;100.00;99621.59;5097712;27;20166;-54
2022/07/21 00:49:10;;;;;;;13.85;8.13;;;;;;;17.29;100.00;99630.50;5112042;27;20027;-54
2022/07/21 00:51:35;;;;;;;11.88;7.40;;;;;;;17.48;100.00;99636.91;5118964;27;20038;-55
2022/07/21 00:54:00;;;;;;;11.60;7.10;;;;;;;17.69;100.00;99637.63;5114176;27;20034;-55
2022/07/21 00:56:26;;;;;;;17.13;8.93;;;;;;;17.74;100.00;99624.03;5116259;27;20359;-54
2022/07/21 00:58:52;;;;;;;20.02;9.20;;;;;;;17.70;100.00;99631.13;5101707;28;20027;-54
2022/07/21 01:01:17;;;;;;;15.20;8.05;;;;;;;17.49;100.00;99637.72;5116696;27;20106;-54
2022/07/21 01:03:42;;;;;;;13.50;8.27;;;;;;;17.15;100.00;99641.94;5116047;27;20080;-54
2022/07/21 01:06:08;;;;;;;16.25;8.38;;;;;;;17.10;100.00;99635.69;5112767;27;20024;-54
2022/07/21 01:08:33;;;;;;;22.63;8.95;;;;;;;16.97;100.00;99627.09;5112619;27;20477;-54
2022/07/21 01:10:59;;;;;;;15.93;8.40;;;;;;;17.19;100.00;99634.03;5117357;27;20380;-55
2022/07/21 01:13:24;;;;;;;16.17;7.55;;;;;;;17.24;100.00;99631.31;5097451;28;20367;-55
2022/07/21 01:15:49;;;;;;;13.60;7.55;;;;;;;17.07;100.00;99634.34;5099335;28;20027;-56
2022/07/21 01:18:15;;;;;;;16.42;7.57;;;;;;;17.17;100.00;99638.91;5092673;28;20031;-56
2022/07/21 01:20:40;;;;;;;11.70;7.05;;;;;;;17.24;100.00;99639.44;5093910;27;20032;-55
2022/07/21 01:23:06;;;;;;;16.55;7.82;;;;;;;17.35;100.00;99637.53;5083124;28;20039;-55
2022/07/21 01:25:31;;;;;;;18.75;7.95;;;;;;;17.37;100.00;99636.16;5119660;27;20542;-55
2022/07/21 01:27:57;;;;;;;12.90;7.72;;;;;;;17.52;100.00;99648.00;5100433;28;20660;-55
2022/07/21 01:30:22;;;;;;;13.88;7.75;;;;;;;17.54;100.00;99651.25;5114705;28;20028;-55
2022/07/21 01:32:47;;;;;;;14.60;7.50;;;;;;;17.57;100.00;99642.56;5118745;28;20048;-55
2022/07/21 01:35:14;;;;;;;21.90;8.32;;;;;;;17.64;100.00;99652.00;5111967;28;20023;-55
2022/07/21 01:37:42;;;;;;;12.00;7.55;;;;;;;17.53;100.00;99646.94;5103443;28;20023;-55
2022/07/21 01:42:53;;;;;;;15.00;7.57;;;;;;;17.37;100.00;99644.28;5116270;28;20053;-55
2022/07/21 01:45:19;;;;;;;13.73;8.00;;;;;;;17.25;100.00;99641.09;5117996;28;20461;-56
2022/07/21 01:47:44;;;;;;;16.52;8.10;;;;;;;17.09;100.00;99642.19;5114184;28;20031;-55
2022/07/21 01:50:10;;;;;;;12.73;8.18;;;;;;;17.08;100.00;99646.00;5114544;28;20027;-55
2022/07/21 01:52:35;;;;;;;13.25;7.40;;;;;;;17.20;100.00;99658.16;5095810;28;20028;-55
2022/07/21 01:55:01;;;;;;;13.00;7.90;;;;;;;17.20;100.00;99663.56;5099604;28;20054;-55
2022/07/21 01:57:26;;;;;;;11.30;7.65;;;;;;;17.15;100.00;99639.22;5121082;27;20023;-53
2022/07/21 01:59:52;;;;;;;14.20;7.75;;;;;;;17.25;100.00;99627.53;5105914;28;20055;-55
2022/07/21 02:02:20;;;;;;;26.17;10.48;;;;;;;17.40;100.00;99640.22;5126126;27;20057;-55
2022/07/21 02:04:47;;;;;;;16.52;7.80;;;;;;;17.09;100.00;99645.72;5076433;27;20051;-55
2022/07/21 02:07:12;;;;;;;19.73;8.63;;;;;;;17.11;100.00;99648.97;5119152;27;20449;-56
2022/07/21 02:09:38;;;;;;;15.95;8.70;;;;;;;17.11;100.00;99648.16;5120346;27;20041;-55
2022/07/21 02:12:04;;;;;;;16.30;8.82;;;;;;;16.97;100.00;99643.34;5129710;27;20061;-55
2022/07/21 02:14:29;;;;;;;16.33;9.07;;;;;;;16.99;100.00;99640.34;5122692;27;20409;-56
2022/07/21 02:16:54;;;;;;;16.25;9.00;;;;;;;16.81;100.00;99637.13;5121962;27;20028;-55
2022/07/21 02:19:20;;;;;;;14.20;8.30;;;;;;;16.84;100.00;99638.47;5126059;27;20099;-56
2022/07/21 02:21:45;;;;;;;18.20;8.18;;;;;;;16.89;100.00;99638.44;5120098;27;20052;-55
2022/07/21 02:24:11;;;;;;;15.18;8.25;;;;;;;16.90;100.00;99631.97;5123540;27;20023;-56
2022/07/21 02:26:36;;;;;;;13.52;8.52;;;;;;;16.91;100.00;99625.47;5123393;27;20024;-57
2022/07/21 02:29:02;;;;;;;16.15;8.20;;;;;;;16.93;100.00;99626.00;5117024;27;20085;-55
2022/07/21 02:31:27;;;;;;;14.50;8.45;;;;;;;16.86;100.00;99630.09;5117288;27;20430;-57
2022/07/21 02:33:52;;;;;;;12.73;7.95;;;;;;;16.82;100.00;99621.69;5122201;27;20028;-56
2022/07/21 02:36:18;;;;;;;13.00;8.38;;;;;;;16.80;100.00;99621.16;5121809;27;20473;-55
2022/07/21 02:38:43;;;;;;;17.27;8.18;;;;;;;16.79;100.00;99633.06;5121601;27;20425;-56
2022/07/21 02:41:09;;;;;;;12.23;8.35;;;;;;;16.84;100.00;99624.94;5121585;27;20023;-56
2022/07/21 02:43:34;;;;;;;11.45;8.02;;;;;;;16.89;100.00;99633.03;5117459;27;20020;-55
2022/07/21 02:45:59;;;;;;;13.40;8.00;;;;;;;16.98;100.00;99625.19;5123347;27;20039;-55
2022/07/21 02:48:25;;;;;;;12.77;7.78;;;;;;;16.87;100.00;99627.09;5120198;27;20044;-55
2022/07/21 02:50:50;;;;;;;13.88;8.98;;;;;;;16.93;100.00;99626.00;5117701;27;20035;-55
2022/07/21 02:53:19;;;;;;;14.35;8.40;;;;;;;16.95;100.00;99628.44;5119200;27;20031;-55
2022/07/21 02:55:47;;;;;;;13.75;9.00;;;;;;;16.93;100.00;99623.28;5117376;27;20377;-56
2022/07/21 02:58:15;;;;;;;13.82;8.25;;;;;;;16.99;100.00;99619.47;5100771;27;20476;-56
2022/07/21 03:00:49;;;;;;;13.82;7.85;;;;;;;16.88;100.00;99620.59;5116076;27;20020;-55
2022/07/21 03:03:15;;;;;;;13.82;8.32;;;;;;;16.85;100.00;99612.19;5116259;27;20106;-56
2022/07/21 03:05:40;;;;;;;11.70;8.02;;;;;;;16.79;100.00;99620.34;5121605;27;20031;-56
2022/07/21 03:08:06;;;;;;;16.25;8.73;;;;;;;16.73;100.00;99617.91;5114748;27;20065;-56
2022/07/21 03:10:31;;;;;;;17.38;8.75;;;;;;;16.74;100.00;99622.22;5123079;27;20370;-56
2022/07/21 03:12:57;;;;;;;18.73;10.27;;;;;;;16.73;100.00;99617.91;5120477;27;20028;-56
2022/07/21 03:15:22;;;;;;;14.98;9.38;;;;;;;16.74;100.00;99616.81;5119028;27;20050;-56
2022/07/21 03:17:48;;;;;;;14.73;9.57;;;;;;;16.72;100.00;99618.97;5120019;27;20046;-56
2022/07/21 03:20:13;;;;;;;13.93;9.73;;;;;;;16.70;100.00;99615.72;5129081;27;20023;-56
2022/07/21 03:22:38;;;;;;;19.80;10.23;;;;;;;16.64;100.00;99606.00;5121291;27;20099;-55
2022/07/21 03:25:04;;;;;;;16.15;10.10;;;;;;;16.58;100.00;99613.31;5117955;27;20024;-55
2022/07/21 03:27:30;;;;;;;17.80;10.80;;;;;;;16.51;100.00;99613.59;5118582;27;20023;-54
2022/07/21 03:29:55;;;;;;;20.08;11.77;;;;;;;16.55;100.00;99620.09;5116872;27;20024;-55
2022/07/21 03:32:22;;;;;;;18.23;10.93;;;;;;;16.48;100.00;99614.13;5117629;27;20023;-55
2022/07/21 03:34:47;;;;;;;16.38;11.48;;;;;;;16.53;100.00;99608.72;5121574;27;20027;-56
2022/07/21 03:37:13;;;;;;;16.42;11.82;;;;;;;16.50;100.00;99605.72;5120029;27;20891;-54
2022/07/21 03:39:38;;;;;;;19.38;10.93;;;;;;;16.44;100.00;99596.81;5123808;27;20477;-55
2022/07/21 03:42:04;;;;;;;17.08;11.73;;;;;;;16.42;100.00;99607.09;5120387;27;20302;-54
2022/07/21 03:44:29;;;;;;;17.20;11.88;;;;;;;16.53;100.00;99610.63;5122210;27;20047;-55
2022/07/21 03:46:58;;;;;;;19.85;12.45;;;;;;;16.47;100.00;99604.38;5120041;27;20477;-55
2022/07/21 03:49:23;;;;;;;19.05;12.82;;;;;;;16.43;100.00;99611.44;5117991;27;20448;-54
2022/07/21 03:51:49;;;;;;;18.67;12.98;;;;;;;16.33;100.00;99622.25;5120062;27;20039;-54
2022/07/21 03:54:14;;;;;;;18.10;11.52;;;;;;;16.36;100.00;99616.31;5120738;27;20019;-54
2022/07/21 03:56:40;;;;;;;16.13;11.55;;;;;;;16.37;100.00;99612.50;5118396;27;20031;-54
2022/07/21 03:59:05;;;;;;;16.88;12.13;;;;;;;16.44;100.00;99613.03;5122332;27;20031;-53
2022/07/21 04:01:30;;;;;;;16.75;12.40;;;;;;;16.51;100.00;99608.19;5119474;27;20092;-55
2022/07/21 04:03:56;;;;;;;17.98;12.40;;;;;;;16.57;100.00;99611.69;5114488;27;20134;-55
2022/07/21 04:06:21;;;;;;;13.75;11.30;;;;;;;16.50;100.00;99611.16;5119244;27;20031;-55
2022/07/21 04:08:46;;;;;;;20.90;12.30;;;;;;;16.80;100.00;99615.75;5116127;27;20410;-55
2022/07/21 04:11:12;;;;;;;16.33;10.48;;;;;;;17.30;100.00;99619.38;5115038;27;20039;-55
2022/07/21 04:13:38;;;;;;;13.50;10.10;;;;;;;17.41;100.00;99617.44;5117161;27;20023;-54
2022/07/21 04:16:03;;;;;;;18.38;10.32;;;;;;;17.24;100.00;99621.28;5122773;27;20023;-54
2022/07/21 04:18:29;;;;;;;16.35;10.57;;;;;;;17.39;100.00;99625.84;5117698;27;20028;-57
2022/07/21 04:20:54;;;;;;;15.63;10.32;;;;;;;17.11;100.00;99630.00;5117509;27;20535;-56
2022/07/21 04:23:19;;;;;;;13.23;10.25;;;;;;;17.06;100.00;99629.22;5115388;27;20027;-56
2022/07/21 04:25:45;;;;;;;14.23;10.13;;;;;;;16.80;100.00;99627.38;5121820;27;20023;-56
2022/07/21 04:28:11;;;;;;;18.02;11.30;;;;;;;16.91;100.00;99619.25;5120570;27;20027;-56
2022/07/21 04:30:36;;;;;;;15.68;11.57;;;;;;;16.82;100.00;99618.97;5094467;28;20375;-55
2022/07/21 04:33:02;;;;;;;19.15;11.30;;;;;;;16.90;100.00;99615.72;5117194;27;20027;-56
2022/07/21 04:35:27;;;;;;;14.95;10.27;;;;;;;16.83;100.00;99620.63;5117670;27;20023;-56
2022/07/21 04:37:53;;;;;;;16.38;10.93;;;;;;;16.78;100.00;99607.91;5114094;27;20038;-54
2022/07/21 04:40:18;;;;;;;20.10;11.90;;;;;;;16.76;100.00;99609.22;5115534;27;20027;-56
2022/07/21 04:42:44;;;;;;;18.33;12.00;;;;;;;16.73;100.00;99612.47;5106213;27;20022;-56
2022/07/21 04:45:10;;;;;;;19.98;12.25;;;;;;;16.74;100.00;99616.81;5116924;27;20015;-57
2022/07/21 04:47:56;;;;;;;17.35;12.60;;;;;;;16.73;100.00;99616.00;5102663;28;20022;-57
2022/07/21 04:50:23;;;;;;;16.50;12.10;;;;;;;16.76;100.00;99615.44;5123832;27;20127;-56
2022/07/21 04:52:49;;;;;;;17.33;11.82;;;;;;;16.76;100.00;99630.88;5118966;27;20035;-56
2022/07/21 04:55:14;;;;;;;17.23;11.30;;;;;;;18.38;99.41;99629.59;5100173;27;20161;-55
2022/07/21 04:57:41;;;;;;;18.73;10.20;;;;;;;19.13;89.92;99627.25;5128531;27;20034;-56
2022/07/21 05:00:09;;;;;;;14.00;9.20;;;;;;;20.85;79.69;99637.81;5121178;27;20027;-57
2022/07/21 05:02:34;;;;;;;14.40;9.77;;;;;;;20.85;82.07;99640.53;5115121;27;20032;-57
2022/07/21 05:05:01;;;;;;;12.15;8.80;;;;;;;21.75;77.40;99638.19;5117510;27;20051;-57
2022/07/21 05:07:27;;;;;;;11.30;8.65;;;;;;;23.12;71.23;99639.81;5114142;27;20023;-55
2022/07/21 05:09:52;;;;;;;14.18;8.93;;;;;;;21.26;79.30;99641.66;5122714;27;20080;-56
2022/07/21 05:12:17;;;;;;;16.13;9.38;;;;;;;20.17;83.70;99644.66;5099891;28;20495;-57
2022/07/21 05:14:43;;;;;;;14.95;9.50;;;;;;;20.92;82.57;99647.50;5103249;28;20023;-57
2022/07/21 05:17:08;;;;;;;14.55;9.45;;;;;;;20.93;79.94;99655.38;5116208;27;20019;-54
2022/07/21 05:19:33;;;;;;;16.00;9.88;;;;;;;19.93;85.37;99654.81;5116054;27;20016;-55
2022/07/21 05:21:59;;;;;;;15.43;9.73;;;;;;;18.83;90.11;99654.75;5117339;27;20034;-55
2022/07/21 05:24:24;;;;;;;17.83;10.90;;;;;;;19.24;89.18;99654.28;5120996;28;20023;-55
2022/07/21 05:26:50;;;;;;;19.50;10.80;;;;;;;18.49;93.29;99655.53;5112552;27;20554;-57
2022/07/21 05:29:15;;;;;;;16.52;10.30;;;;;;;18.32;94.52;99653.22;5114955;28;20027;-57
2022/07/21 05:31:41;;;;;;;17.52;11.23;;;;;;;18.64;94.10;99644.56;5102661;27;20023;-58
2022/07/21 05:34:06;;;;;;;14.27;10.32;;;;;;;18.61;94.08;99649.75;5120294;27;20032;-56
2022/07/21 05:36:32;;;;;;;18.60;12.05;;;;;;;18.77;92.78;99651.28;5119393;27;20120;-57
2022/07/21 05:38:57;;;;;;;19.52;11.30;;;;;;;19.32;89.89;99656.38;5132274;27;20473;-57
2022/07/21 05:41:23;;;;;;;14.82;11.60;;;;;;;19.27;89.35;99659.16;5120636;27;20023;-57
2022/07/21 05:43:48;;;;;;;17.63;11.68;;;;;;;20.61;85.53;99657.03;5125948;27;20024;-55
2022/07/21 05:46:14;;;;;;;17.98;11.15;;;;;;;21.51;78.28;99665.72;5116759;27;20034;-56
2022/07/21 05:48:39;;;;;;;18.92;11.23;;;;;;;21.26;79.34;99664.28;5101635;27;20016;-57
2022/07/21 05:51:05;;;;;;;16.63;10.35;;;;;;;20.70;79.79;99668.06;5092535;28;20028;-56
2022/07/21 05:53:31;;;;;;;18.58;11.45;;;;;;;21.96;78.19;99659.56;5098295;27;20040;-55
2022/07/21 05:55:56;;;;;;;13.88;10.48;;;;;;;25.16;64.22;99659.91;5121685;27;20035;-56
2022/07/21 05:58:24;;;;;;;19.50;9.80;;;;;;;26.11;61.18;99675.09;5110576;28;20116;-56
2022/07/21 06:01:25;;;;;;;16.67;10.05;;;;;;;24.85;65.53;99679.41;5122309;27;20509;-56
2022/07/21 06:03:48;;;;;;;18.90;11.20;;;;;;;22.03;73.62;99681.78;5117043;27;20393;-56
2022/07/21 06:06:13;;;;;;;;;;;;;;;21.47;78.59;99680.28;5128663;27;20019;-56
2022/07/21 06:08:40;;;;;;;18.85;11.88;;;;;;;21.14;80.36;99684.97;5130431;27;19998;-56
2022/07/21 06:11:10;;;;;;;19.80;12.32;;;;;;;22.49;74.81;99688.13;5129985;27;20034;-56
2022/07/21 06:13:35;;;;;;;17.88;11.52;;;;;;;25.66;63.33;99688.59;5109416;27;20110;-57
2022/07/21 06:16:01;;;;;;;16.58;11.02;;;;;;;21.84;74.35;99683.84;5128618;27;20031;-57
2022/07/21 06:18:26;;;;;;;17.15;11.77;;;;;;;22.62;74.14;99681.81;5084746;28;20031;-56
2022/07/21 06:20:52;;;;;;;18.23;11.75;;;;;;;22.82;71.91;99673.06;5127414;27;20027;-57
2022/07/21 06:23:17;;;;;;;17.45;12.60;;;;;;;22.25;74.31;99672.06;5125029;27;20574;-57
2022/07/21 06:25:43;;;;;;;20.20;12.20;;;;;;;23.11;73.25;99671.78;5123032;27;20104;-57
2022/07/21 06:28:08;;;;;;;20.85;12.07;;;;;;;24.26;67.31;99680.75;5116203;27;20462;-57
2022/07/21 06:30:34;;;;;;;19.45;12.40;;;;;;;26.41;62.13;99686.78;5116003;27;20019;-57
2022/07/21 06:32:59;;;;;;;17.30;12.25;;;;;;;26.20;60.16;99692.28;5121512;27;20019;-57
2022/07/21 06:35:25;;;;;;;18.13;11.80;;;;;;;24.04;66.43;99689.13;5124126;27;20037;-57
2022/07/21 06:37:50;;;;;;;17.13;12.25;;;;;;;23.43;71.18;99689.75;5105264;28;20039;-56
2022/07/21 06:40:15;;;;;;;24.02;13.10;;;;;;;24.06;69.44;99695.06;5121060;27;20027;-57
2022/07/21 06:42:42;;;;;;;20.58;12.80;;;;;;;24.68;65.40;99694.75;5122046;27;20513;-57
2022/07/21 06:45:07;;;;;;;20.33;12.85;;;;;;;26.61;60.20;99690.66;5121749;27;20374;-58
2022/07/21 06:47:33;;;;;;;19.02;11.82;;;;;;;27.16;59.15;99696.03;5114563;27;20025;-57
2022/07/21 06:50:02;;;;;;;24.52;12.60;;;;;;;26.23;59.71;99685.31;5124537;27;20423;-57
2022/07/21 06:52:30;;;;;;;17.23;11.88;;;;;;;26.82;59.75;99689.81;5124070;27;20027;-57
2022/07/21 06:54:56;;;;;;;19.10;12.07;;;;;;;24.78;64.19;99679.09;5123238;27;20023;-56
2022/07/21 06:57:21;;;;;;;20.83;11.52;;;;;;;24.90;63.21;99673.75;5118985;27;20103;-57
2022/07/21 06:59:47;;;;;;;20.00;12.73;;;;;;;23.50;69.51;99683.84;5117250;27;20070;-56
2022/07/21 07:02:12;;;;;;;18.52;12.43;;;;;;;23.96;68.55;99679.75;5128067;27;20027;-56
2022/07/21 07:04:38;;;;;;;18.23;12.65;;;;;;;24.31;67.52;99680.59;5124673;27;20036;-55
2022/07/21 07:07:03;;;;;;;21.17;12.73;;;;;;;23.94;68.80;99678.47;5122752;27;20031;-56
2022/07/21 07:09:29;;;;;;;18.55;11.85;;;;;;;26.48;59.75;99683.47;5118951;27;20020;-56
2022/07/21 07:12:02;;;;;;;24.05;11.75;;;;;;;26.95;57.26;99690.63;5087428;28;20500;-57
2022/07/21 07:14:28;;;;;;;16.95;11.68;;;;;;;24.86;65.09;99683.75;5114909;27;20035;-57
2022/07/21 07:16:53;;;;;;;20.27;12.05;;;;;;;23.62;69.04;99686.78;5117781;27;20075;-56
2022/07/21 07:19:19;;;;;;;19.35;11.43;;;;;;;22.48;74.69;99687.31;5112680;27;20355;-56
2022/07/21 07:21:44;;;;;;;18.45;10.57;;;;;;;21.13;76.89;99683.34;5113521;27;20596;-56
2022/07/21 07:24:10;;;;;;;17.30;10.38;;;;;;;21.95;72.43;99677.06;5117500;27;20106;-56
2022/07/21 07:26:35;;;;;;;16.60;9.48;;;;;;;22.14;71.63;99683.19;5123314;27;20024;-56
2022/07/21 07:29:00;;;;;;;14.23;10.18;;;;;;;23.89;67.71;99680.25;5116956;27;20035;-55
2022/07/21 07:31:26;;;;;;;18.35;10.68;;;;;;;23.81;66.22;99675.59;5111964;27;20031;-56
2022/07/21 07:33:51;;;;;;;16.88;10.45;;;;;;;22.32;72.74;99683.34;5118068;27;20023;-55
2022/07/21 07:36:17;;;;;;;22.05;10.60;;;;;;;23.31;70.88;99678.63;5118245;27;20522;-56
2022/07/21 07:38:42;;;;;;;17.08;11.30;;;;;;;24.45;67.67;99680.44;5119238;27;20023;-55
2022/07/21 07:41:08;;;;;;;10.82;8.48;;;;;;;24.33;63.61;99675.56;5117519;27;20030;-56
2022/07/21 07:43:33;;;;;;;15.82;8.70;;;;;;;23.85;64.89;99673.78;5080532;27;20046;-56
2022/07/21 07:46:01;;;;;;;12.82;8.68;;;;;;;27.41;54.89;99667.44;5118650;27;20047;-56
2022/07/21 07:48:26;;;;;;;18.17;9.82;;;;;;;27.94;53.16;99667.50;5119406;27;20354;-56
2022/07/21 07:50:52;;;;;;;19.23;9.65;;;;;;;28.62;51.38;99669.44;5103635;27;20533;-57
2022/07/21 07:53:17;;;;;;;15.30;10.75;;;;;;;26.17;58.14;99667.44;5121086;27;20019;-57
2022/07/21 07:55:43;;;;;;;13.93;10.07;;;;;;;25.64;60.84;99663.44;5119875;27;20030;-57
2022/07/21 07:58:09;;;;;;;15.98;9.77;;;;;;;25.91;58.35;99668.44;5118925;27;20027;-57
2022/07/21 08:00:35;;;;;;;16.13;9.20;;;;;;;24.82;61.13;99671.84;5121440;27;20073;-57
2022/07/21 08:03:18;;;;;;;22.92;9.20;;;;;;;24.61;61.01;99678.03;5118117;27;20092;-57
2022/07/21 08:05:43;;;;;;;18.10;10.10;;;;;;;23.63;64.75;99676.63;5081557;28;20111;-56
2022/07/21 08:08:09;;;;;;;16.88;10.23;;;;;;;25.50;61.01;99678.19;5082056;28;20032;-57
2022/07/21 08:10:34;;;;;;;19.95;10.52;;;;;;;27.67;54.20;99680.81;5075182;28;20025;-57
2022/07/21 08:13:00;;;;;;;15.63;10.48;;;;;;;26.06;56.84;99685.44;5079492;28;20036;-57
2022/07/21 08:15:25;;;;;;;17.83;10.07;;;;;;;27.78;52.93;99681.13;5054022;28;20023;-56
2022/07/21 08:17:51;;;;;;;14.27;9.13;;;;;;;28.63;50.97;99675.75;5077935;28;20032;-57
2022/07/21 08:20:16;;;;;;;14.40;8.63;;;;;;;27.16;52.59;99683.09;5082534;28;20485;-57
2022/07/21 08:22:42;;;;;;;13.88;9.18;;;;;;;28.31;50.15;99681.16;5070886;28;20467;-57
2022/07/21 08:25:07;;;;;;;17.17;10.48;;;;;;;26.17;56.09;99689.41;5079174;28;20423;-57
2022/07/21 08:27:33;;;;;;;15.77;10.48;;;;;;;25.50;59.28;99685.63;5063263;28;20012;-56
2022/07/21 08:29:58;;;;;;;18.02;11.00;;;;;;;24.48;62.54;99679.00;5080317;28;20469;-55
2022/07/21 08:32:23;;;;;;;21.40;11.20;;;;;;;23.93;63.80;99679.59;5081481;28;20024;-56
2022/07/21 08:34:49;;;;;;;15.15;10.18;;;;;;;24.70;62.32;99681.53;5075459;28;20537;-56
2022/07/21 08:37:14;;;;;;;15.80;8.88;;;;;;;24.81;60.27;99671.03;5075405;28;20367;-56
2022/07/21 08:39:40;;;;;;;18.15;8.75;;;;;;;23.72;63.65;99674.72;5076542;28;20048;-56
2022/07/21 08:42:08;;;;;;;14.50;8.52;;;;;;;23.04;64.84;99672.25;5075580;28;20032;-55
2022/07/21 08:44:34;;;;;;;15.85;9.07;;;;;;;25.03;60.57;99683.69;5076638;28;20032;-56
2022/07/21 08:46:59;;;;;;;17.67;8.45;;;;;;;25.85;55.65;99680.75;5077741;28;20024;-56
2022/07/21 08:49:25;;;;;;;13.07;7.57;;;;;;;24.79;60.19;99683.44;5077251;28;20043;-56
2022/07/21 08:51:51;;;;;;;14.73;8.48;;;;;;;23.80;62.53;99676.69;5077557;28;20039;-55
2022/07/21 08:54:17;;;;;;;16.15;8.27;;;;;;;25.61;57.65;99687.66;5075914;28;20028;-56
2022/07/21 08:56:43;;;;;;;14.85;8.43;;;;;;;26.02;55.87;99686.13;5073921;28;20378;-56
2022/07/21 08:59:08;;;;;;;16.67;8.10;;;;;;;25.32;57.40;99687.66;5083858;28;20113;-55
2022/07/21 09:01:33;;;;;;;13.45;7.28;;;;;;;24.80;57.63;99679.56;5092632;28;20020;-56
2022/07/21 09:04:30;;;;;;;11.93;7.10;;;;;;;23.72;60.60;99682.94;5094197;28;20067;-55
2022/07/21 09:07:00;;;;;;;12.90;8.35;;;;;;;23.55;61.64;99685.63;5118531;27;20388;-56
2022/07/21 09:09:27;;;;;;;14.05;7.25;;;;;;;22.88;62.79;99686.59;5120622;27;20015;-56
2022/07/21 09:11:52;;;;;;;14.32;7.28;;;;;;;23.68;60.52;99679.22;5106421;27;20545;-56
2022/07/21 09:14:21;;;;;;;12.43;6.57;;;;;;;24.85;56.36;99687.63;5110655;28;20043;-56
2022/07/21 09:16:49;;;;;;;10.53;7.07;;;;;;;25.75;53.13;99692.91;5121806;27;20032;-56
2022/07/21 09:19:15;;;;;;;11.88;6.63;;;;;;;27.82;48.31;99684.03;5112195;27;20272;-56
2022/07/21 09:21:41;;;;;;;11.15;6.63;;;;;;;26.95;49.94;99690.63;5113596;27;20020;-57
2022/07/21 09:24:16;;;;;;;11.45;6.50;;;;;;;27.19;49.99;99682.44;5122466;28;20035;-57
2022/07/21 09:27:05;;;;;;;13.55;7.30;;;;;;;26.69;51.94;99688.97;5121567;27;20028;-56
2022/07/21 09:29:38;;;;;;;14.20;7.20;;;;;;;27.46;49.43;99685.66;5117784;27;20070;-56
2022/07/21 09:32:13;;;;;;;11.05;6.38;;;;;;;28.97;46.08;99696.34;5106831;28;20031;-57
2022/07/21 09:34:39;;;;;;;11.77;6.65;;;;;;;29.22;44.60;99689.53;5112600;28;20024;-56
2022/07/21 09:37:05;;;;;;;10.93;6.75;;;;;;;28.26;46.13;99684.16;5098809;28;20073;-57
2022/07/21 09:39:49;;;;;;;12.27;6.38;;;;;;;26.82;49.24;99689.81;5095415;28;20378;-61
2022/07/21 09:42:24;;;;;;;11.60;6.22;;;;;;;27.43;48.54;99686.34;5119214;28;20031;-56
2022/07/21 09:44:58;;;;;;;13.02;6.38;;;;;;;27.66;47.27;99686.69;5118130;28;20020;-56
2022/07/21 09:47:27;;;;;;;13.68;6.18;;;;;;;28.88;44.64;99681.91;5115139;28;20098;-57
2022/07/21 09:49:53;;;;;;;11.30;6.25;;;;;;;28.64;44.26;99678.16;5116340;28;20027;-55
2022/07/21 09:52:22;;;;;;;10.00;5.75;;;;;;;27.59;45.09;99683.72;5120348;28;20489;-54
2022/07/21 09:54:47;;;;;;;11.00;5.72;;;;;;;28.00;45.15;99682.63;5101903;28;20390;-56
2022/07/21 09:57:15;;;;;;;11.30;6.38;;;;;;;27.64;44.22;99680.72;5114926;28;20023;-55
2022/07/21 09:59:42;;;;;;;16.02;6.20;;;;;;;28.98;44.25;99665.66;5099612;28;20028;-55
2022/07/21 10:02:09;;;;;;;11.57;6.53;;;;;;;27.47;46.18;99673.50;5098418;28;20051;-55
2022/07/21 10:04:35;;;;;;;13.95;6.57;;;;;;;27.94;44.28;99675.75;5079361;28;20371;-55
2022/07/21 10:07:00;;;;;;;12.27;6.53;;;;;;;27.84;44.70;99676.25;5116676;28;20022;-54
2022/07/21 10:09:26;;;;;;;12.45;6.05;;;;;;;28.53;43.29;99675.13;5088701;28;20026;-55
2022/07/21 10:11:51;;;;;;;13.43;6.93;;;;;;;28.16;43.60;99675.22;5116445;28;20389;-55
2022/07/21 10:14:17;;;;;;;15.35;7.10;;;;;;;28.33;43.55;99674.16;5078363;28;20024;-55
2022/07/21 10:16:42;;;;;;;12.30;6.97;;;;;;;28.01;43.28;99675.97;5098053;28;20038;-57
2022/07/21 10:19:26;;;;;;;16.17;7.22;;;;;;;28.39;43.02;99671.94;5123393;27;20038;-56
2022/07/21 10:22:15;;;;;;;15.48;7.30;;;;;;;28.68;42.71;99679.06;5116304;27;20544;-54
2022/07/21 10:24:40;;;;;;;18.58;7.40;;;;;;;29.14;41.48;99673.97;5067295;27;20453;-55
2022/07/21 10:27:07;;;;;;;14.10;8.15;;;;;;;27.63;44.55;99674.41;5072374;28;20027;-55
2022/07/21 10:29:48;;;;;;;13.05;7.40;;;;;;;26.81;46.59;99688.19;5121143;27;20019;-55
2022/07/21 10:32:18;;;;;;;16.88;8.23;;;;;;;26.30;47.95;99680.06;5113863;27;20390;-55
2022/07/21 10:34:44;;;;;;;16.25;8.48;;;;;;;26.63;47.07;99673.81;5129479;27;20055;-55
2022/07/21 10:37:09;;;;;;;16.98;8.32;;;;;;;27.99;43.53;99678.28;5103055;28;20023;-55
2022/07/21 10:39:35;;;;;;;13.00;8.38;;;;;;;28.40;42.76;99679.84;5120954;27;20019;-55
2022/07/21 10:42:02;;;;;;;18.52;8.55;;;;;;;28.57;41.46;99672.44;5102016;27;20023;-55
2022/07/21 10:44:28;;;;;;;12.25;7.50;;;;;;;28.71;41.89;99672.03;5084012;27;20495;-56
2022/07/21 10:47:05;;;;;;;12.77;8.15;;;;;;;28.41;42.07;99666.88;5120900;27;20031;-55
2022/07/21 10:49:53;;;;;;;13.75;8.55;;;;;;;27.87;43.69;99673.59;5112842;27;20031;-55
2022/07/21 10:52:45;;;;;;;12.90;8.35;;;;;;;27.25;44.77;99661.78;5125230;27;20035;-56
2022/07/21 10:55:10;;;;;;;16.75;9.10;;;;;;;27.30;44.83;99674.53;5116980;27;20039;-55
2022/07/21 10:57:46;;;;;;;13.75;9.32;;;;;;;27.73;44.39;99668.44;5112911;27;20129;-55
2022/07/21 11:00:21;;;;;;;14.07;9.35;;;;;;;27.06;44.97;99670.59;5102547;28;20111;-58
2022/07/21 11:02:51;;;;;;;15.05;9.65;;;;;;;27.25;44.61;99674.75;5127607;27;20118;-55
2022/07/21 11:05:16;;;;;;;13.43;9.25;;;;;;;27.19;44.46;99668.69;5120972;27;20501;-55
2022/07/21 11:08:13;;;;;;;19.98;8.85;;;;;;;27.03;44.79;99673.22;5099346;27;20050;-57
2022/07/21 11:10:46;;;;;;;16.95;9.15;;;;;;;26.70;44.73;99670.53;5123990;27;20122;-55
2022/07/21 11:13:12;;;;;;;15.90;9.48;;;;;;;26.43;45.55;99673.50;5112572;27;20184;-56
2022/07/21 11:15:53;;;;;;;18.75;9.32;;;;;;;27.43;45.60;99669.81;5114576;27;20468;-57
2022/07/21 11:18:23;;;;;;;16.27;9.68;;;;;;;27.06;44.45;99667.06;5111540;27;20031;-55
2022/07/21 11:21:08;;;;;;;16.35;9.88;;;;;;;27.42;44.86;99673.72;5116933;27;20019;-57